LTCL Airport Information

Runway Information
Runway 06 Length 5905 ft width 98 ft
Elevation 1946 ft Threshold 0 ft Heading 68
Runway 24 Length 5905 ft Width 98 ft
Elevation 2000 ft Threshold 0 ft Heading 248
Airport Frequencies
Type TWR Name TWR Frequency 132.05 MHZ
Airport Navaids
Type VOR-DME Name Siirt Frequency 114300 KHZ
Type NDB Name Siirt Frequency 409 KHZ
Airport Weather Information & NOTAM
ADDS - METARS form results

(1805 UTC 15 December 2018)
Data provider http://aviationweather.gov/metar/data/
 
Forecast for: LTCL (SIIRT AIRPORT , TR)
Text: TAF LTCL 151340Z 1515/1524 VRB02KT 9999 FEW040 SCT100
Forecast period: 1500 UTC 15 December 2018 to 0000 UTC 16 December 2018
Forecast type: FROM: standard forecast or significant change
Winds: variable direction winds at 2 MPH (2 knots; 1.0 m/s)
Visibility: 6 or more miles 10+ km)
Ceiling: at least 12,000 feet AGL
Clouds: few clouds at 4000 feet AGL
scattered clouds at 10000 feet AGL
Weather: no significant weather forecast for this period